Time;durP1;ratioP1;P1;durP2;ratioP2;P2;SDS_P1;SDS_P2;PMS_P1;PMS_P2;Temp;Humidity;BMP_temperature;BMP_pressure;BME280_temperature;BME280_humidity;BME280_pressure;Samples;Min_cycle;Max_cycle;Signal;HPM_P1;HPM_P2
2023/12/14 00:01:35;;;;;;;;;;;;;;;7.06;100.00;100371.13;5039413;28;19925;-96
2023/12/14 00:04:04;;;;;;;;;;;;;;;7.08;100.00;100376.28;5007202;28;19921;-96
2023/12/14 00:09:53;;;;;;;;;;;;;;;7.11;100.00;100367.28;5023702;28;19917;-96
2023/12/14 00:12:25;;;;;;;;;;;;;;;7.13;100.00;100370.63;5001041;28;19944;-96
2023/12/14 00:14:57;;;;;;;;;;;;;;;7.15;100.00;100373.97;5016640;28;20404;-96
2023/12/14 00:17:26;;;;;;;;;;;;;;;7.15;100.00;100366.91;5011321;28;19967;-96
2023/12/14 00:19:54;;;;;;;;;;;;;;;7.14;100.00;100369.66;5028117;28;19936;-96
2023/12/14 00:22:20;;;;;;;;;;;;;;;7.16;100.00;100371.22;5010133;28;19916;-96
2023/12/14 00:24:46;;;;;;;;;;;;;;;7.15;100.00;100364.28;5022694;28;19917;-96
2023/12/14 00:27:15;;;;;;;;;;;;;;;7.14;100.00;100372.28;5029567;28;19916;-96
2023/12/14 00:29:44;;;;;;;;;;;;;;;7.13;100.00;100366.22;4999987;28;19917;-96
2023/12/14 00:32:15;;;;;;;;;;;;;;;7.13;100.00;100366.22;5014868;28;19917;-96
2023/12/14 00:34:54;;;;;;;;;;;;;;;7.15;100.00;100377.44;5019215;28;19917;-96
2023/12/14 00:37:23;;;;;;;;;;;;;;;7.17;100.00;100366.78;5014645;28;19947;-96
2023/12/14 00:39:49;;;;;;;;;;;;;;;7.20;100.00;100371.81;5024684;28;19913;-96
2023/12/14 00:42:23;;;;;;;;;;;;;;;7.19;100.00;100371.00;5032027;28;20408;-96
2023/12/14 00:44:56;;;;;;;;;;;;;;;7.23;100.00;100374.19;5009426;28;19951;-96
2023/12/14 00:47:22;;;;;;;;;;;;;;;7.25;100.00;100364.38;5013711;28;19927;-96
2023/12/14 00:49:48;;;;;;;;;;;;;;;7.28;100.00;100373.81;5012321;28;19928;-96
2023/12/14 00:52:14;;;;;;;;;;;;;;;7.31;100.00;100369.13;5006074;28;20415;-96
2023/12/14 00:54:40;;;;;;;;;;;;;;;7.32;100.00;100352.44;5024255;28;19916;-96
2023/12/14 00:57:08;;;;;;;;;;;;;;;7.35;100.00;100363.63;5025522;28;19956;-96
2023/12/14 00:59:40;;;;;;;;;;;;;;;7.39;100.00;100367.69;5017309;28;19947;-96
2023/12/14 01:02:06;;;;;;;;;;;;;;;7.41;100.00;100376.28;5035831;28;19917;-96
2023/12/14 01:04:34;;;;;;;;;;;;;;;7.42;100.00;100380.59;5004289;28;19920;-96
2023/12/14 01:07:00;;;;;;;;;;;;;;;7.45;100.00;100386.41;5049776;28;19984;-96
2023/12/14 01:09:26;;;;;;;;;;;;;;;7.46;100.00;100384.63;5034470;28;19959;-96
2023/12/14 01:11:52;;;;;;;;;;;;;;;7.46;100.00;100387.25;5022796;28;20389;-96
2023/12/14 01:14:17;;;;;;;;;;;;;;;7.49;100.00;100388.78;5046380;28;19917;-96
2023/12/14 01:16:43;;;;;;;;;;;;;;;7.48;100.00;100374.84;5010381;28;19924;-96
2023/12/14 01:19:09;;;;;;;;;;;;;;;7.49;100.00;100368.59;5019442;28;19916;-96
2023/12/14 01:21:38;;;;;;;;;;;;;;;7.51;100.00;100353.53;5024333;28;19924;-96
2023/12/14 01:24:11;;;;;;;;;;;;;;;7.55;100.00;100359.34;5026984;28;19921;-96
2023/12/14 01:26:45;;;;;;;;;;;;;;;7.55;100.00;100352.31;5030094;28;19951;-96
2023/12/14 01:29:11;;;;;;;;;;;;;;;7.57;100.00;100362.72;5008175;28;19939;-96
2023/12/14 01:31:43;;;;;;;;;;;;;;;7.59;100.00;100366.06;5028635;28;19916;-96
2023/12/14 01:34:15;;;;;;;;;;;;;;;7.62;100.00;100376.31;5022123;28;19916;-96
2023/12/14 01:36:41;;;;;;;;;;;;;;;7.67;100.00;100382.03;5014732;28;19917;-96
2023/12/14 01:39:07;;;;;;;;;;;;;;;7.69;100.00;100379.28;5028296;28;19960;-96
2023/12/14 01:41:33;;;;;;;;;;;;;;;7.72;100.00;100378.19;5013028;28;19917;-96
2023/12/14 01:44:07;;;;;;;;;;;;;;;7.72;100.00;100376.41;5018464;28;19921;-96
2023/12/14 01:46:52;;;;;;;;;;;;;;;7.73;100.00;100390.38;5032851;28;19916;-96
2023/12/14 01:49:18;;;;;;;;;;;;;;;7.76;100.00;100379.59;5007240;28;19923;-96
2023/12/14 01:51:44;;;;;;;;;;;;;;;7.78;100.00;100380.31;5038554;28;19920;-91
2023/12/14 01:54:09;;;;;;;;;;;;;;;7.79;100.00;100380.19;5003037;28;20300;-91
2023/12/14 01:56:35;;;;;;;;;;;;;;;7.81;100.00;100382.69;5003012;28;19921;-96
2023/12/14 01:59:04;;;;;;;;;;;;;;;7.82;100.00;100387.81;5010176;28;19917;-96
2023/12/14 02:01:36;;;;;;;;;;;;;;;7.86;100.00;100391.03;5006669;28;19940;-96
2023/12/14 02:04:12;;;;;;;;;;;;;;;7.88;100.00;100388.28;5044888;28;19921;-96
2023/12/14 02:06:40;;;;;;;;;;;;;;;7.91;100.00;100385.38;5006296;28;19901;-96
2023/12/14 02:09:06;;;;;;;;;;;;;;;7.94;100.00;100393.03;5031025;28;19923;-96
2023/12/14 02:11:32;;;;;;;;;;;;;;;7.94;100.00;100393.88;5021120;28;19988;-96
2023/12/14 02:14:15;;;;;;;;;;;;;;;7.95;100.00;100397.31;5032442;28;19952;-96
2023/12/14 02:17:04;;;;;;;;;;;;;;;7.98;100.00;100396.25;5017235;28;19925;-96
2023/12/14 02:19:40;;;;;;;;;;;;;;;7.97;100.00;100389.28;5035715;28;19916;-96
2023/12/14 02:22:12;;;;;;;;;;;;;;;7.98;100.00;100399.69;5022205;28;19933;-96
2023/12/14 02:24:41;;;;;;;;;;;;;;;7.99;100.00;100401.38;5017117;28;19925;-96
2023/12/14 02:27:14;;;;;;;;;;;;;;;7.99;100.00;100405.81;5018022;28;19917;-96
2023/12/14 02:29:43;;;;;;;;;;;;;;;7.99;100.00;100397.91;5056673;28;19933;-96
2023/12/14 02:32:11;;;;;;;;;;;;;;;7.99;100.00;100401.38;5013264;28;19921;-96
2023/12/14 02:35:01;;;;;;;;;;;;;;;8.01;100.00;100404.69;5033214;28;19917;-96
2023/12/14 02:37:40;;;;;;;;;;;;;;;8.04;100.00;100411.53;5029952;28;19980;-96
2023/12/14 02:40:37;;;;;;;;;;;;;;;8.04;100.00;100404.44;5050329;28;19920;-96
2023/12/14 02:43:40;;;;;;;;;;;;;;;8.08;100.00;100410.28;5018263;28;19922;-96
2023/12/14 02:46:34;;;;;;;;;;;;;;;8.09;100.00;100406.69;5031494;28;19955;-96
2023/12/14 02:49:08;;;;;;;;;;;;;;;8.12;100.00;100406.41;5007298;28;19927;-96
2023/12/14 02:51:49;;;;;;;;;;;;;;;8.14;100.00;100415.03;5027711;28;19917;-96
2023/12/14 02:54:41;;;;;;;;;;;;;;;8.15;100.00;100415.88;5015181;28;19923;-96
2023/12/14 02:57:14;;;;;;;;;;;;;;;8.17;100.00;100419.22;5028004;28;19955;-96
2023/12/14 02:59:51;;;;;;;;;;;;;;;8.18;100.00;100418.25;5044508;28;19917;-96
2023/12/14 03:02:22;;;;;;;;;;;;;;;8.19;100.00;100418.13;5014671;28;19921;-96
2023/12/14 03:04:54;;;;;;;;;;;;;;;8.18;100.00;100416.47;5024492;28;19924;-96
2023/12/14 03:07:21;;;;;;;;;;;;;;;8.19;100.00;100419.91;5038208;28;19916;-96
2023/12/14 03:09:47;;;;;;;;;;;;;;;8.18;100.00;100419.09;5017123;28;19972;-96
2023/12/14 03:12:13;;;;;;;;;;;;;;;8.19;100.00;100417.28;5008468;28;19924;-96
2023/12/14 03:14:40;;;;;;;;;;;;;;;8.19;100.00;100422.53;5023659;28;19950;-96
2023/12/14 03:17:18;;;;;;;;;;;;;;;8.21;100.00;100422.41;5037820;28;20316;-96
2023/12/14 03:19:44;;;;;;;;;;;;;;;8.22;100.00;100424.09;5008037;28;19918;-96
2023/12/14 03:22:10;;;;;;;;;;;;;;;8.23;100.00;100426.59;5025931;28;19918;-96
2023/12/14 03:24:36;;;;;;;;;;;;;;;8.23;100.00;100412.59;5005073;28;19928;-96
2023/12/14 03:27:03;;;;;;;;;;;;;;;8.24;100.00;100425.63;5012917;28;19974;-96
2023/12/14 03:29:29;;;;;;;;;;;;;;;8.23;100.00;100426.59;5019671;28;19960;-96
2023/12/14 03:31:58;;;;;;;;;;;;;;;8.24;100.00;100423.00;5028489;28;19939;-96
2023/12/14 03:34:24;;;;;;;;;;;;;;;8.25;100.00;100424.66;5028733;28;19917;-96
2023/12/14 03:36:51;;;;;;;;;;;;;;;8.26;100.00;100428.13;5015976;28;19923;-96
2023/12/14 03:39:25;;;;;;;;;;;;;;;8.27;100.00;100417.47;5032621;28;19992;-96
2023/12/14 03:41:59;;;;;;;;;;;;;;;8.28;100.00;100408.59;5029544;28;19916;-96
2023/12/14 03:44:36;;;;;;;;;;;;;;;8.31;100.00;100418.06;5040150;28;19921;-96
2023/12/14 03:47:03;;;;;;;;;;;;;;;8.40;100.00;100419.06;5038210;28;19917;-96
2023/12/14 03:49:38;;;;;;;;;;;;;;;8.48;100.00;100418.41;5025085;28;19921;-96
2023/12/14 03:52:04;;;;;;;;;;;;;;;8.56;100.00;100411.56;5014132;28;19921;-96
2023/12/14 03:54:30;;;;;;;;;;;;;;;8.65;100.00;100404.66;5031662;28;19917;-96
2023/12/14 03:56:56;;;;;;;;;;;;;;;8.74;100.00;100416.22;5023987;28;19966;-96
2023/12/14 03:59:22;;;;;;;;;;;;;;;8.77;100.00;100415.94;5012683;28;19917;-96
2023/12/14 04:01:48;;;;;;;;;;;;;;;8.81;100.00;100408.59;5042342;28;19920;-96
2023/12/14 04:04:14;;;;;;;;;;;;;;;8.81;100.00;100412.06;5027238;28;20275;-96
2023/12/14 04:06:40;;;;;;;;;;;;;;;8.81;100.00;100419.97;5016141;28;19941;-96
2023/12/14 04:09:06;;;;;;;;;;;;;;;8.84;100.00;100420.69;5018306;28;20384;-96
2023/12/14 04:11:32;;;;;;;;;;;;;;;8.86;100.00;100424.84;5030706;28;19917;-96
2023/12/14 04:13:58;;;;;;;;;;;;;;;8.88;100.00;100430.81;5007746;28;19921;-96
2023/12/14 04:16:24;;;;;;;;;;;;;;;8.90;100.00;100422.78;5022574;28;20369;-92
2023/12/14 04:18:50;;;;;;;;;;;;;;;8.93;100.00;100425.97;5006484;28;19917;-92
2023/12/14 04:21:18;;;;;;;;;;;;;;;8.95;100.00;100422.38;5009191;28;19924;-96
2023/12/14 04:23:45;;;;;;;;;;;;;;;8.96;100.00;100430.16;5025663;28;19932;-96
2023/12/14 04:26:11;;;;;;;;;;;;;;;8.98;100.00;100428.19;5011483;28;19924;-96
2023/12/14 04:28:37;;;;;;;;;;;;;;;8.99;100.00;100424.59;5022473;28;19925;-96
2023/12/14 04:31:06;;;;;;;;;;;;;;;9.02;100.00;100429.59;5026500;28;19916;-96
2023/12/14 04:33:31;;;;;;;;;;;;;;;9.04;100.00;100432.97;5024674;28;19923;-96
2023/12/14 04:35:57;;;;;;;;;;;;;;;9.05;100.00;100431.13;5023928;28;19917;-96
2023/12/14 04:38:23;;;;;;;;;;;;;;;9.06;100.00;100427.56;5000981;28;19925;-96
2023/12/14 04:40:49;;;;;;;;;;;;;;;9.08;100.00;100432.69;5032312;28;19917;-96
2023/12/14 04:43:15;;;;;;;;;;;;;;;9.09;100.00;100439.63;5028026;28;19921;-96
2023/12/14 04:45:46;;;;;;;;;;;;;;;9.12;100.00;100447.25;5008607;28;19924;-96
2023/12/14 04:48:12;;;;;;;;;;;;;;;9.12;100.00;100450.75;5011703;28;19920;-96
2023/12/14 04:50:37;;;;;;;;;;;;;;;9.15;100.00;100452.25;5013285;28;19924;-96
2023/12/14 04:53:04;;;;;;;;;;;;;;;9.15;100.00;100458.38;5026079;28;19925;-96
2023/12/14 04:55:30;;;;;;;;;;;;;;;9.17;100.00;100459.06;5026195;28;19923;-96
2023/12/14 04:57:55;;;;;;;;;;;;;;;9.17;100.00;100452.97;5020491;28;19917;-96
2023/12/14 05:00:21;;;;;;;;;;;;;;;9.15;100.00;100450.47;5022434;28;19924;-96
2023/12/14 05:02:48;;;;;;;;;;;;;;;9.12;100.00;100445.47;5022768;28;19927;-96
2023/12/14 05:05:14;;;;;;;;;;;;;;;9.11;100.00;100450.88;5007111;28;19917;-96
2023/12/14 05:07:39;;;;;;;;;;;;;;;9.08;100.00;100456.41;5034841;28;20019;-96
2023/12/14 05:10:05;;;;;;;;;;;;;;;9.05;100.00;100453.06;5007245;28;20338;-96
2023/12/14 05:12:31;;;;;;;;;;;;;;;9.02;100.00;100452.50;5018176;28;19917;-96
2023/12/14 05:14:57;;;;;;;;;;;;;;;8.99;100.00;100456.25;5021383;28;19971;-96
2023/12/14 05:17:23;;;;;;;;;;;;;;;8.95;100.00;100457.47;5003557;28;19917;-96
2023/12/14 05:19:49;;;;;;;;;;;;;;;8.87;100.00;100462.59;5029648;28;20487;-96
2023/12/14 05:22:15;;;;;;;;;;;;;;;8.83;100.00;100464.66;5013505;28;19970;-96
2023/12/14 05:24:41;;;;;;;;;;;;;;;8.79;100.00;100479.06;5006218;28;20011;-96
2023/12/14 05:27:06;;;;;;;;;;;;;;;8.76;100.00;100484.59;5032603;28;19917;-96
2023/12/14 05:29:33;;;;;;;;;;;;;;;8.71;100.00;100477.09;5020841;28;19924;-96
2023/12/14 05:31:59;;;;;;;;;;;;;;;8.64;100.00;100473.28;5033985;28;20023;-93
2023/12/14 05:34:24;;;;;;;;;;;;;;;8.55;100.00;100470.47;5019844;28;20015;-91
2023/12/14 05:36:50;;;;;;;;;;;;;;;8.49;100.00;100472.78;5003061;28;20388;-96
2023/12/14 05:39:16;;;;;;;;;;;;;;;8.43;100.00;100474.97;5002956;28;20335;-96
2023/12/14 05:41:41;;;;;;;;;;;;;;;8.38;100.00;100487.66;5019864;28;20339;-96
2023/12/14 05:44:07;;;;;;;;;;;;;;;8.41;100.00;100483.94;5020584;28;20003;-96
2023/12/14 05:46:33;;;;;;;;;;;;;;;8.44;100.00;100483.69;5006562;28;20388;-96
2023/12/14 05:48:59;;;;;;;;;;;;;;;8.44;100.00;100488.97;5049440;28;19921;-96
2023/12/14 05:51:27;;;;;;;;;;;;;;;8.45;100.00;100488.00;5007867;28;20381;-96
2023/12/14 05:53:53;;;;;;;;;;;;;;;8.47;100.00;100491.34;5025116;28;19974;-96
2023/12/14 05:56:19;;;;;;;;;;;;;;;8.49;100.00;100494.66;5024925;28;19916;-96
2023/12/14 05:58:45;;;;;;;;;;;;;;;8.51;100.00;100498.00;5007690;28;19921;-96
2023/12/14 06:01:10;;;;;;;;;;;;;;;8.54;100.00;100507.44;5005474;28;19928;-96
2023/12/14 06:03:36;;;;;;;;;;;;;;;8.58;100.00;100508.91;5002363;28;20012;-96
2023/12/14 06:06:02;;;;;;;;;;;;;;;8.60;100.00;100508.78;5007424;28;20396;-96
2023/12/14 06:08:28;;;;;;;;;;;;;;;8.62;100.00;100505.03;4995873;28;19983;-96
2023/12/14 06:10:53;;;;;;;;;;;;;;;8.65;100.00;100511.84;5005688;28;19917;-96
2023/12/14 06:13:21;;;;;;;;;;;;;;;8.65;100.00;100517.09;5005111;28;19917;-96
2023/12/14 06:15:46;;;;;;;;;;;;;;;8.68;100.00;100522.13;4999938;28;19925;-96
2023/12/14 06:18:13;;;;;;;;;;;;;;;8.69;100.00;100529.06;4983020;28;19971;-96
2023/12/14 06:20:40;;;;;;;;;;;;;;;8.71;100.00;100537.69;4992001;28;20020;-96
2023/12/14 06:23:06;;;;;;;;;;;;;;;8.71;100.00;100544.75;4978935;28;19949;-96
2023/12/14 06:25:32;;;;;;;;;;;;;;;8.71;100.00;100548.25;4998999;28;19932;-96
2023/12/14 06:27:57;;;;;;;;;;;;;;;8.71;100.00;100556.16;5017886;28;19921;-96
2023/12/14 06:30:23;;;;;;;;;;;;;;;8.72;100.00;100554.31;4987378;28;19925;-93
2023/12/14 06:32:49;;;;;;;;;;;;;;;8.71;100.00;100564.06;5020709;28;19917;-92
2023/12/14 06:35:15;;;;;;;;;;;;;;;8.73;100.00;100577.09;4979063;28;19941;-91
2023/12/14 06:37:41;;;;;;;;;;;;;;;8.74;100.00;100587.50;4974725;28;20008;-96
2023/12/14 06:40:08;;;;;;;;;;;;;;;8.75;100.00;100599.72;4995421;28;19924;-96
2023/12/14 06:42:34;;;;;;;;;;;;;;;8.74;100.00;100594.56;5022318;28;19988;-96
2023/12/14 06:45:03;;;;;;;;;;;;;;;8.73;100.00;100593.72;4995028;28;20010;-96
2023/12/14 06:47:30;;;;;;;;;;;;;;;8.74;100.00;100607.75;4974169;28;19921;-92
2023/12/14 06:49:56;;;;;;;;;;;;;;;8.71;100.00;100603.59;4997075;28;19924;-93
2023/12/14 06:52:23;;;;;;;;;;;;;;;8.71;100.00;100610.63;4983179;28;19916;-92
2023/12/14 06:54:49;;;;;;;;;;;;;;;8.68;100.00;100616.97;4982669;28;19929;-93
2023/12/14 06:57:14;;;;;;;;;;;;;;;8.69;100.00;100621.31;4989456;28;19917;-96
2023/12/14 06:59:40;;;;;;;;;;;;;;;8.67;100.00;100631.97;4986700;28;19931;-96
2023/12/14 07:02:06;;;;;;;;;;;;;;;8.64;100.00;100621.69;4986200;28;19925;-96
2023/12/14 07:04:31;;;;;;;;;;;;;;;8.60;100.00;100622.06;4983655;28;20377;-96
2023/12/14 07:06:58;;;;;;;;;;;;;;;8.53;100.00;100622.56;4991571;28;19917;-96
2023/12/14 07:09:24;;;;;;;;;;;;;;;8.50;100.00;100632.50;5010043;28;20079;-96
2023/12/14 07:11:50;;;;;;;;;;;;;;;8.45;100.00;100630.25;5008824;28;19917;-96
2023/12/14 07:14:15;;;;;;;;;;;;;;;8.39;100.00;100634.19;5020978;28;19952;-96
2023/12/14 07:16:41;;;;;;;;;;;;;;;8.35;100.00;100645.09;5007219;28;19917;-96
2023/12/14 07:19:07;;;;;;;;;;;;;;;8.27;100.00;100651.84;5002611;28;19917;-96
2023/12/14 07:21:33;;;;;;;;;;;;;;;8.23;100.00;100649.59;4991111;28;19924;-91
2023/12/14 07:23:59;;;;;;;;;;;;;;;8.18;100.00;100656.06;4986813;28;19964;-92
2023/12/14 07:26:24;;;;;;;;;;;;;;;8.13;100.00;100665.28;5000662;28;19979;-96
2023/12/14 07:28:52;;;;;;;;;;;;;;;8.10;100.00;100668.16;5006688;28;19971;-96
2023/12/14 07:31:18;;;;;;;;;;;;;;;8.06;100.00;100665.78;5000089;28;19921;-96
2023/12/14 07:33:45;;;;;;;;;;;;;;;8.03;100.00;100668.66;4995642;28;19921;-96
2023/12/14 07:36:13;;;;;;;;;;;;;;;8.02;100.00;100667.00;4994523;28;19985;-96
2023/12/14 07:38:39;;;;;;;;;;;;;;;7.97;100.00;100674.41;4999823;28;20247;-96
2023/12/14 07:41:05;;;;;;;;;;;;;;;7.88;100.00;100681.25;4994794;28;19924;-96
2023/12/14 07:43:31;;;;;;;;;;;;;;;7.79;100.00;100680.16;5010211;28;19921;-96
2023/12/14 07:45:58;;;;;;;;;;;;;;;7.72;100.00;100693.91;4992397;28;19918;-96
2023/12/14 07:48:23;;;;;;;;;;;;;;;7.65;100.00;100691.75;4995181;28;19921;-96
2023/12/14 07:50:49;;;;;;;;;;;;;;;7.61;100.00;100702.66;5005566;28;19924;-96
2023/12/14 07:53:15;;;;;;;;;;;;;;;7.55;100.00;100710.03;4991148;28;19968;-96
2023/12/14 07:55:41;;;;;;;;;;;;;;;7.49;100.00;100715.78;5000831;28;19964;-96
2023/12/14 07:58:07;;;;;;;;;;;;;;;7.41;100.00;100715.53;5001893;28;19921;-96
2023/12/14 08:00:33;;;;;;;;;;;;;;;7.35;100.00;100713.34;4984656;28;19925;-96
2023/12/14 08:02:59;;;;;;;;;;;;;;;7.29;100.00;100709.41;5003016;28;19994;-96
2023/12/14 08:05:24;;;;;;;;;;;;;;;7.24;100.00;100715.03;5003174;28;19944;-92
2023/12/14 08:07:52;;;;;;;;;;;;;;;7.23;100.00;100723.84;5004724;28;19936;-92
2023/12/14 08:10:18;;;;;;;;;;;;;;;7.23;100.00;100728.28;4983849;28;19917;-92
2023/12/14 08:12:44;;;;;;;;;;;;;;;7.22;100.00;100727.44;4987552;28;19917;-96
2023/12/14 08:15:10;;;;;;;;;;;;;;;7.24;100.00;100735.22;5004113;28;19940;-96
2023/12/14 08:17:35;;;;;;;;;;;;;;;7.25;100.00;100742.13;4994324;28;19939;-96
2023/12/14 08:20:01;;;;;;;;;;;;;;;7.27;100.00;100746.34;5005493;28;20488;-96
2023/12/14 08:22:26;;;;;;;;;;;;;;;7.28;100.00;100760.31;4999522;28;19917;-96
2023/12/14 08:24:52;;;;;;;;;;;;;;;7.27;100.00;100767.38;5036284;28;20019;-96
2023/12/14 08:27:18;;;;;;;;;;;;;;;7.24;100.00;100774.66;4997365;28;19924;-96
2023/12/14 08:29:45;;;;;;;;;;;;;;;7.23;100.00;100772.97;5000479;28;20350;-96
2023/12/14 08:32:11;;;;;;;;;;;;;;;7.22;100.00;100776.53;5004409;28;20393;-96
2023/12/14 08:34:37;;;;;;;;;;;;;;;7.19;100.00;100782.88;5000037;28;19952;-96
2023/12/14 08:37:03;;;;;;;;;;;;;;;7.16;100.00;100783.97;5000129;28;19932;-96
2023/12/14 08:39:28;;;;;;;;;;;;;;;7.15;100.00;100784.88;4987000;28;20415;-96
2023/12/14 08:41:54;;;;;;;;;;;;;;;7.14;100.00;100788.47;5000877;28;19925;-96
2023/12/14 08:44:19;;;;;;;;;;;;;;;7.15;100.00;100792.78;4991527;28;20020;-96
2023/12/14 08:46:46;;;;;;;;;;;;;;;7.16;100.00;100801.50;4990848;28;19925;-96
2023/12/14 08:49:12;;;;;;;;;;;;;;;7.17;100.00;100798.75;5012525;28;19925;-96
2023/12/14 08:51:38;;;;;;;;;;;;;;;7.17;100.00;100808.44;5003747;28;19917;-96
2023/12/14 08:54:04;;;;;;;;;;;;;;;7.18;100.00;100815.38;5022022;28;20279;-96
2023/12/14 08:56:30;;;;;;;;;;;;;;;7.15;100.00;100819.06;4997417;28;19922;-96
2023/12/14 08:58:55;;;;;;;;;;;;;;;7.12;100.00;100823.72;5026562;28;19917;-96
2023/12/14 09:01:22;;;;;;;;;;;;;;;7.10;100.00;100826.47;5007217;28;19967;-96
2023/12/14 09:03:49;;;;;;;;;;;;;;;7.09;100.00;100823.94;5006021;28;19925;-96
2023/12/14 09:06:16;;;;;;;;;;;;;;;7.08;100.00;100825.72;5000183;28;19972;-96
2023/12/14 09:08:41;;;;;;;;;;;;;;;7.07;100.00;100832.78;5002957;28;19924;-96
2023/12/14 09:11:07;;;;;;;;;;;;;;;7.06;100.00;100831.09;5007774;28;20270;-96
2023/12/14 09:13:33;;;;;;;;;;;;;;;7.07;100.00;100834.59;4988658;28;20627;-96
2023/12/14 09:15:59;;;;;;;;;;;;;;;7.07;100.00;100838.03;5018830;28;19917;-96
2023/12/14 09:18:24;;;;;;;;;;;;;;;7.13;100.00;100841.16;4997673;28;19951;-96
2023/12/14 09:20:53;;;;;;;;;;;;;;;7.18;100.00;100845.13;4996077;28;19913;-91
2023/12/14 09:23:19;;;;;;;;;;;;;;;7.20;100.00;100863.41;4989990;28;19928;-90
2023/12/14 09:25:45;;;;;;;;;;;;;;;7.20;100.00;100861.63;4999280;28;20004;-91
2023/12/14 09:28:11;;;;;;;;;;;;;;;7.22;100.00;100858.03;5004034;28;19960;-96
2023/12/14 09:30:37;;;;;;;;;;;;;;;7.22;100.00;100871.19;5018091;28;19921;-96
2023/12/14 09:33:03;;;;;;;;;;;;;;;7.21;100.00;100878.25;5013497;28;19923;-96
2023/12/14 09:35:29;;;;;;;;;;;;;;;7.20;100.00;100882.66;5023185;28;19929;-96
2023/12/14 09:37:56;;;;;;;;;;;;;;;7.20;100.00;100885.31;4980050;28;19940;-96
2023/12/14 09:40:22;;;;;;;;;;;;;;;7.17;100.00;100885.53;4988657;28;19985;-90
2023/12/14 09:42:48;;;;;;;;;;;;;;;7.15;100.00;100900.56;4999861;28;20304;-91
2023/12/14 09:45:16;;;;;;;;;;;;;;;7.13;100.00;100901.63;4993208;28;20049;-90
2023/12/14 09:47:42;;;;;;;;;;;;;;;7.14;100.00;100900.66;5003034;28;19949;-96
2023/12/14 09:50:08;;;;;;;;;;;;;;;7.16;100.00;100906.66;4985042;28;19921;-96
2023/12/14 09:52:34;;;;;;;;;;;;;;;7.20;100.00;100910.75;4983430;28;19921;-92
2023/12/14 09:55:00;;;;;;;;;;;;;;;7.27;100.00;100913.78;5003150;28;20435;-92
2023/12/14 09:57:26;;;;;;;;;;;;;;;7.30;100.00;100924.91;5017603;28;19917;-96
2023/12/14 09:59:55;;;;;;;;;;;;;;;7.34;100.00;100916.81;4993188;28;20275;-96
2023/12/14 10:02:24;;;;;;;;;;;;;;;7.36;100.00;100928.06;5000298;28;19917;-96
2023/12/14 10:04:50;;;;;;;;;;;;;;;7.38;100.00;100915.63;5002430;28;19921;-96
2023/12/14 10:07:16;;;;;;;;;;;;;;;7.35;100.00;100924.59;4985352;28;19917;-96
2023/12/14 10:09:42;;;;;;;;;;;;;;;7.33;100.00;100929.09;5000143;28;20011;-96
2023/12/14 10:12:09;;;;;;;;;;;;;;;7.35;100.00;100934.25;4987214;28;19917;-96
2023/12/14 10:14:36;;;;;;;;;;;;;;;7.35;100.00;100937.72;4991220;28;20632;-96
2023/12/14 10:17:14;;;;;;;;;;;;;;;7.35;100.00;100937.72;4995243;28;19924;-96
2023/12/14 10:19:44;;;;;;;;;;;;;;;7.37;100.00;100945.50;5022021;28;19928;-96
2023/12/14 10:22:11;;;;;;;;;;;;;;;7.38;100.00;100949.81;5005717;28;19968;-96
2023/12/14 10:24:36;;;;;;;;;;;;;;;7.42;100.00;100956.56;4978974;28;19967;-97
2023/12/14 10:27:08;;;;;;;;;;;;;;;7.44;100.00;100959.88;4999258;28;19917;-96
2023/12/14 10:29:35;;;;;;;;;;;;;;;7.45;100.00;100964.22;5001296;28;19929;-96
2023/12/14 10:32:06;;;;;;;;;;;;;;;7.44;100.00;100959.88;5016287;28;19939;-96
2023/12/14 10:34:33;;;;;;;;;;;;;;;7.48;100.00;100961.38;4992243;28;19917;-96
2023/12/14 10:36:59;;;;;;;;;;;;;;;7.49;100.00;100965.66;5007474;28;19921;-96
2023/12/14 10:39:26;;;;;;;;;;;;;;;7.51;100.00;100963.78;5013328;28;19913;-96
2023/12/14 10:41:54;;;;;;;;;;;;;;;7.53;100.00;100967.09;4991634;28;19963;-90
2023/12/14 10:44:20;;;;;;;;;;;;;;;7.57;100.00;100967.72;4985873;28;19943;-90
2023/12/14 10:46:48;;;;;;;;;;;;;;;7.60;100.00;100985.94;5010508;28;19924;-96
2023/12/14 10:49:18;;;;;;;;;;;;;;;7.65;100.00;100975.06;4983540;28;20019;-96
2023/12/14 10:51:45;;;;;;;;;;;;;;;7.67;100.00;100986.31;4984161;28;20004;-96
2023/12/14 10:54:15;;;;;;;;;;;;;;;7.71;100.00;100986.94;5007913;28;19922;-96
2023/12/14 10:56:42;;;;;;;;;;;;;;;7.74;100.00;100992.00;4983538;28;19917;-96
2023/12/14 10:59:09;;;;;;;;;;;;;;;7.74;100.00;100992.81;4991409;28;19925;-96
2023/12/14 11:01:39;;;;;;;;;;;;;;;7.78;100.00;101002.19;5000025;28;19970;-96
2023/12/14 11:04:06;;;;;;;;;;;;;;;7.77;100.00;101004.91;4999594;28;19912;-96
2023/12/14 11:06:35;;;;;;;;;;;;;;;7.79;100.00;101016.16;4985917;28;19918;-96
2023/12/14 11:09:06;;;;;;;;;;;;;;;7.82;100.00;101008.88;4998176;28;19956;-96
2023/12/14 11:11:43;;;;;;;;;;;;;;;7.85;100.00;101010.44;4991054;28;19925;-91
2023/12/14 11:14:13;;;;;;;;;;;;;;;7.89;100.00;101008.44;4972011;28;19929;-90
2023/12/14 11:16:46;;;;;;;;;;;;;;;7.90;100.00;101012.75;5002475;28;20024;-96
2023/12/14 11:19:21;;;;;;;;;;;;;;;7.89;100.00;101013.69;4997144;28;19921;-96
2023/12/14 11:22:07;;;;;;;;;;;;;;;7.90;100.00;101018.03;5002894;28;19918;-96
2023/12/14 11:24:37;;;;;;;;;;;;;;;7.91;100.00;101012.66;4968216;28;19922;-96
2023/12/14 11:27:09;;;;;;;;;;;;;;;7.89;100.00;101011.06;4976340;28;19917;-96
2023/12/14 11:29:38;;;;;;;;;;;;;;;7.90;100.00;101012.75;4994643;28;19914;-96
2023/12/14 11:32:08;;;;;;;;;;;;;;;7.91;100.00;101017.91;4981259;28;20097;-96
2023/12/14 11:34:34;;;;;;;;;;;;;;;7.96;100.00;101022.00;4998007;28;19921;-96
2023/12/14 11:37:00;;;;;;;;;;;;;;;7.98;100.00;101022.72;4984930;28;19971;-96
2023/12/14 11:39:32;;;;;;;;;;;;;;;8.02;100.00;101032.06;5018962;28;19901;-96
2023/12/14 11:41:59;;;;;;;;;;;;;;;8.04;100.00;101036.25;5006037;28;19989;-96
2023/12/14 11:44:26;;;;;;;;;;;;;;;8.07;100.00;101036.03;5000333;28;19922;-96
2023/12/14 11:46:52;;;;;;;;;;;;;;;8.12;100.00;101032.22;4982357;28;19928;-96
2023/12/14 11:49:23;;;;;;;;;;;;;;;8.19;100.00;101038.72;4993332;28;19940;-96
2023/12/14 11:51:50;;;;;;;;;;;;;;;8.24;100.00;101033.09;5047418;28;19947;-96
2023/12/14 11:54:16;;;;;;;;;;;;;;;8.28;100.00;101035.38;5012882;28;20151;-96
2023/12/14 11:56:46;;;;;;;;;;;;;;;8.29;100.00;101021.28;5012729;28;19963;-96
2023/12/14 11:59:12;;;;;;;;;;;;;;;8.30;100.00;101025.59;5024990;28;19917;-96
2023/12/14 12:01:38;;;;;;;;;;;;;;;8.29;100.00;101021.28;4997182;28;19928;-90
2023/12/14 12:04:13;;;;;;;;;;;;;;;8.31;100.00;101016.72;4999651;28;19979;-89
2023/12/14 12:06:39;;;;;;;;;;;;;;;8.33;100.00;101019.25;5005728;28;19917;-96
2023/12/14 12:09:08;;;;;;;;;;;;;;;8.34;100.00;101026.22;4984455;28;19917;-96
2023/12/14 12:11:34;;;;;;;;;;;;;;;8.36;100.00;101026.09;5030496;28;19974;-96
2023/12/14 12:14:02;;;;;;;;;;;;;;;8.42;100.00;101025.63;5002815;28;19918;-96
2023/12/14 12:16:28;;;;;;;;;;;;;;;8.45;100.00;101030.66;4996995;28;20466;-96
2023/12/14 12:18:54;;;;;;;;;;;;;;;8.47;100.00;101031.41;5006846;28;19926;-96
2023/12/14 12:21:21;;;;;;;;;;;;;;;8.48;100.00;101034.84;5007449;28;19967;-96
2023/12/14 12:23:46;;;;;;;;;;;;;;;8.48;100.00;101029.59;4988246;28;19925;-96
2023/12/14 12:26:13;;;;;;;;;;;;;;;8.49;100.00;101026.84;4988923;28;20258;-89
2023/12/14 12:28:38;;;;;;;;;;;;;;;8.50;100.00;101036.44;4999468;28;19928;-90
2023/12/14 12:31:04;;;;;;;;;;;;;;;8.51;100.00;101032.84;5009102;28;19924;-90
2023/12/14 12:33:29;;;;;;;;;;;;;;;8.53;100.00;101038.00;4984942;28;19996;-89
2023/12/14 12:35:55;;;;;;;;;;;;;;;8.52;100.00;101036.31;5001346;28;19971;-90
2023/12/14 12:38:21;;;;;;;;;;;;;;;8.55;100.00;101041.38;4990385;28;20043;-89
2023/12/14 12:40:46;;;;;;;;;;;;;;;8.57;100.00;101050.00;5015005;28;19917;-96
2023/12/14 12:43:14;;;;;;;;;;;;;;;8.57;100.00;101050.00;5006780;28;19925;-96